Weather in DTW

Cherokee_Cruiser

Well-Known Member
KDTW 051754Z 23028G37KT 10SM FEW048 BKN065 20/12 A2946 RMK AO2 PK WND 23050/1716 SLP976 60010 T02000122 10200 20089 56010 $


Gusting 37 knots, ok, but a peak wind of 50 knots, hell !!!
 

sopdan

Well-Known Member
Over here on the other side of the state we were forecast to have 50kt wind shear at 1000 ft last night. I don't think it actually came though.
 

Tim

New Member
Well here in ATL its 75 and with a high overcast and light breeze...not a bad day
 

BoDEAN

New Member
[ QUOTE ]
KDTW 051754Z 23028G37KT 10SM FEW048 BKN065 20/12 A2946 RMK AO2 PK WND 23050/1716 SLP976 60010 T02000122 10200 20089 56010 $


Gusting 37 knots, ok, but a peak wind of 50 knots, hell !!!

[/ QUOTE ]

Same thing in Grand Rapids today.
Was a "Coffee and sit in the FBO" day for me lol
 

sorrygottarunway

Well-Known Member
cry me a river

KDXR 060453Z 00000KT M1/4SM FG VV001 06/06 A2974 RMK AO2 SLP071 T00610056 400670044

"Stick your hand out... can you still see it? No?"

This is pretty nice for an airport who's localizer only works within a distance of 3 inches....

Sit in the FBO and watch the history channel with Lloyd day

 

lilrkt

New Member
That's the weather I was looking at in KESC when I had to land with 3 inches of ice on my wings the other day.
 
Top